Аэропорт: Пашковский. Краснодар

ICAO: URKK

METAR:
2021-04-21 22:00:00
URKK 212200Z 30002MPS 9999 FEW042 09/07 Q1021 R23L/CLRD70 TEMPO 3000 BR RMK QFE762
METAR:
2021-04-21 19:56:00
TAF URKK 211956Z 2121/2221 30003MPS 6000 SCT016 TEMPO 2121/2206 0200 FG OVC002 FM220700 17003MPS 9999 SCT020CB